首页
METAR-TAF:

METAR-TAF

机场 :

Mc Elroy Airfield

Kremmling, 科羅拉多州, 美国

纬度: 40-03-13N, 经度: 106-22-08W, 海拔: 2259米

当前天气观测

该预报发布于25分钟前的00:12 UTC
风速8节,风向西南
温度 24°C
湿度 20%
气压 1020 hPa
能見度: 16.1公里
散云层高于12000英尺

METAR: K20V 260012Z AUTO 23008KT 10SM SCT120 24/00 A3013 RMK AO2

时间: 18:37 (00:37 UTC)


TAF: 丢失

超过4000个机场的气象观测和天气预报(METAR&TAF报告)。

可查询的气象台以黄色和红色小点在地图上表示。

将鼠标移到小点上方,可查看气象台名称。

然后点击查看天气观测和预报。

如需切换地图:点击带黑十字的绿色按钮放大地图;点击带横线的绿色按钮缩小地图;或者点击绿色箭头查看邻近地区的地图。


METAR-TAF: